createdAt,value
2023-03-27T00:02:11.692Z,10.39
2023-03-27T00:07:13.398Z,10.30
2023-03-27T00:12:15.204Z,10.19
2023-03-27T00:17:16.816Z,10.06
2023-03-27T00:22:18.481Z,10.05
2023-03-27T00:27:20.344Z,10.06
2023-03-27T00:32:21.966Z,10.03
2023-03-27T00:37:23.675Z,10.03
2023-03-27T00:42:25.506Z,9.96
2023-03-27T00:47:33.301Z,9.93
2023-03-27T00:52:37.122Z,9.92
2023-03-27T00:57:39.979Z,10.02
2023-03-27T01:02:44.438Z,10.08
2023-03-27T01:08:01.016Z,10.15
2023-03-27T01:13:38.492Z,10.25
2023-03-27T01:18:54.646Z,10.22
2023-03-27T01:24:33.874Z,10.15
2023-03-27T01:29:53.461Z,10.08
2023-03-27T01:35:24.777Z,10.17
2023-03-27T01:40:46.658Z,10.22
2023-03-27T01:45:55.988Z,10.23
2023-03-27T01:51:08.167Z,10.23
2023-03-27T01:56:18.186Z,10.36
2023-03-27T02:01:26.805Z,10.37
2023-03-27T02:06:35.331Z,10.27
2023-03-27T02:11:43.666Z,10.18
2023-03-27T02:16:51.600Z,10.19
2023-03-27T02:21:53.395Z,10.04
2023-03-27T02:27:12.860Z,9.97
2023-03-27T02:32:37.112Z,9.89
2023-03-27T02:38:06.452Z,9.99
2023-03-27T02:43:17.337Z,9.94
2023-03-27T02:48:43.906Z,9.81
2023-03-27T02:53:51.310Z,9.77
2023-03-27T02:59:04.589Z,9.81
2023-03-27T03:04:41.873Z,9.78
2023-03-27T03:09:56.344Z,9.75
2023-03-27T03:14:58.142Z,9.68
2023-03-27T03:19:59.777Z,9.63
2023-03-27T03:25:02.185Z,9.62
2023-03-27T03:30:04.934Z,9.57
2023-03-27T03:35:13.805Z,9.48
2023-03-27T03:40:16.580Z,9.39
2023-03-27T03:45:21.690Z,9.48
2023-03-27T03:50:23.439Z,9.39
2023-03-27T03:55:25.725Z,9.38
2023-03-27T04:00:28.426Z,9.39
2023-03-27T04:05:32.032Z,9.34
2023-03-27T04:10:35.853Z,9.23
2023-03-27T04:15:40.805Z,9.27
2023-03-27T04:20:54.482Z,9.25
2023-03-27T04:26:00.821Z,9.12
2023-03-27T04:31:18.670Z,9.18
2023-03-27T04:36:58.605Z,9.20
2023-03-27T04:42:02.869Z,9.16
2023-03-27T04:47:08.841Z,9.20
2023-03-27T04:52:14.245Z,9.20
2023-03-27T04:57:19.143Z,9.29
2023-03-27T05:02:23.187Z,9.28
2023-03-27T05:07:33.063Z,9.27
2023-03-27T05:12:36.292Z,9.21
2023-03-27T05:17:42.018Z,9.12
2023-03-27T05:22:45.444Z,9.10
2023-03-27T05:28:13.578Z,9.12
2023-03-27T05:33:17.573Z,9.13
2023-03-27T05:38:20.345Z,9.04
2023-03-27T05:43:36.932Z,9.10
2023-03-27T05:48:39.218Z,9.09
2023-03-27T05:53:42.182Z,9.07
2023-03-27T05:58:54.524Z,9.10
2023-03-27T06:03:56.908Z,9.11
2023-03-27T06:09:25.337Z,9.21
2023-03-27T06:14:50.169Z,9.23
2023-03-27T06:20:12.828Z,9.23
2023-03-27T06:25:16.884Z,9.17
2023-03-27T06:30:21.788Z,9.34
2023-03-27T06:35:43.506Z,9.22
2023-03-27T06:40:59.968Z,9.36
2023-03-27T06:46:19.887Z,9.09
2023-03-27T06:51:41.919Z,9.14
2023-03-27T06:56:45.352Z,9.21
2023-03-27T07:01:55.671Z,9.08
2023-03-27T07:07:09.356Z,9.10
2023-03-27T07:12:15.350Z,9.16
2023-03-27T07:17:20.104Z,9.06
2023-03-27T07:22:27.467Z,9.11
2023-03-27T07:27:31.752Z,9.10
2023-03-27T07:32:38.053Z,9.27
2023-03-27T07:37:42.891Z,9.34
2023-03-27T07:43:14.187Z,9.26
2023-03-27T07:48:19.065Z,9.27
2023-03-27T07:53:34.021Z,9.40
2023-03-27T07:58:56.530Z,9.40
2023-03-27T08:03:59.478Z,9.34
2023-03-27T08:09:05.258Z,9.42
2023-03-27T08:14:09.224Z,9.43
2023-03-27T08:19:12.576Z,9.47
2023-03-27T08:24:18.436Z,9.55
2023-03-27T08:29:37.282Z,9.54
2023-03-27T08:34:40.853Z,9.59
2023-03-27T08:39:42.950Z,9.59
2023-03-27T08:44:45.089Z,9.67
2023-03-27T08:49:54.259Z,9.77
2023-03-27T08:55:38.126Z,9.85
2023-03-27T09:01:41.301Z,9.88
2023-03-27T09:06:48.175Z,9.93
2023-03-27T09:12:14.287Z,9.54
2023-03-27T09:17:49.027Z,9.31
2023-03-27T09:22:57.998Z,9.22
2023-03-27T09:28:29.112Z,9.13
2023-03-27T09:33:41.489Z,8.58
2023-03-27T09:38:50.629Z,7.42
2023-03-27T09:44:13.356Z,7.05
2023-03-27T09:49:20.829Z,7.02
2023-03-27T09:54:31.721Z,6.63
2023-03-27T09:59:38.738Z,6.36
2023-03-27T10:05:02.514Z,6.07
2023-03-27T10:10:21.162Z,5.94
2023-03-27T10:15:42.447Z,5.61
2023-03-27T10:20:57.123Z,5.64
2023-03-27T10:26:04.161Z,5.46
2023-03-27T10:31:36.541Z,5.18
2023-03-27T10:36:54.537Z,5.03
2023-03-27T10:42:09.030Z,4.77
2023-03-27T10:47:22.722Z,4.71
2023-03-27T10:52:40.586Z,4.63
2023-03-27T10:57:54.007Z,4.42
2023-03-27T11:03:21.093Z,4.35
2023-03-27T11:08:46.450Z,4.30
2023-03-27T11:13:52.138Z,4.16
2023-03-27T11:19:13.289Z,4.21
2023-03-27T11:24:55.234Z,4.28
2023-03-27T11:30:14.349Z,4.24
2023-03-27T11:35:39.273Z,4.26
2023-03-27T11:41:01.931Z,4.19
2023-03-27T11:46:21.094Z,4.19
2023-03-27T11:51:22.892Z,4.10
2023-03-27T11:56:31.865Z,4.15
2023-03-27T12:02:27.812Z,4.14
2023-03-27T12:07:38.046Z,4.35
2023-03-27T12:13:12.023Z,4.22
2023-03-27T12:18:27.478Z,3.99
2023-03-27T12:23:50.814Z,4.00
2023-03-27T12:29:23.056Z,4.02
2023-03-27T12:34:50.115Z,4.03
2023-03-27T12:39:59.014Z,4.19
2023-03-27T12:45:18.025Z,4.36
2023-03-27T12:50:26.314Z,4.84
2023-03-27T12:55:32.758Z,5.38
2023-03-27T13:00:34.416Z,5.64
2023-03-27T13:05:45.720Z,5.92
2023-03-27T13:11:18.651Z,6.22
2023-03-27T13:17:02.302Z,6.50
2023-03-27T13:22:20.430Z,6.85
2023-03-27T13:27:47.705Z,6.93
2023-03-27T13:33:14.398Z,6.91
2023-03-27T13:38:36.999Z,6.55
2023-03-27T13:43:39.067Z,6.81
2023-03-27T13:49:06.167Z,6.90
2023-03-27T13:54:34.504Z,7.44
2023-03-27T14:00:10.578Z,7.53
2023-03-27T14:05:49.395Z,7.24
2023-03-27T14:11:09.768Z,6.92
2023-03-27T14:16:50.780Z,6.90
2023-03-27T14:22:00.241Z,7.17
2023-03-27T14:27:10.739Z,7.14
2023-03-27T14:32:17.381Z,7.13
2023-03-27T14:37:31.890Z,7.58
2023-03-27T14:42:38.111Z,8.12
2023-03-27T14:47:43.208Z,8.04
2023-03-27T14:52:52.952Z,7.69
2023-03-27T14:58:00.144Z,7.37
2023-03-27T15:03:13.755Z,7.69
2023-03-27T15:08:19.618Z,7.79
2023-03-27T15:13:45.764Z,7.59
2023-03-27T15:19:17.250Z,7.52
2023-03-27T15:24:30.473Z,7.12
2023-03-27T15:29:40.733Z,6.96
2023-03-27T15:34:46.924Z,6.88
2023-03-27T15:39:59.355Z,6.75
2023-03-27T15:45:03.673Z,6.64
2023-03-27T15:50:17.440Z,6.63
2023-03-27T15:55:39.467Z,6.68
2023-03-27T16:00:49.861Z,6.64
2023-03-27T16:05:57.049Z,6.57
2023-03-27T16:11:00.602Z,6.40
2023-03-27T16:16:05.803Z,6.28
2023-03-27T16:21:13.432Z,6.15
2023-03-27T16:26:27.891Z,6.14
2023-03-27T16:31:29.743Z,5.98
2023-03-27T16:36:32.948Z,5.90
2023-03-27T16:41:34.624Z,5.90
2023-03-27T16:46:36.607Z,5.69
2023-03-27T16:51:38.292Z,5.65
2023-03-27T16:56:40.008Z,5.36
2023-03-27T17:01:42.134Z,5.36
2023-03-27T17:06:44.071Z,5.29
2023-03-27T17:11:45.843Z,5.00
2023-03-27T17:16:48.907Z,4.95
2023-03-27T17:21:50.619Z,4.94
2023-03-27T17:26:52.480Z,4.90
2023-03-27T17:32:00.672Z,4.68
2023-03-27T17:37:02.328Z,4.59
2023-03-27T17:42:04.194Z,4.39
2023-03-27T17:47:07.563Z,4.23
2023-03-27T17:52:11.814Z,4.32
2023-03-27T17:57:13.508Z,4.27
2023-03-27T18:02:20.848Z,4.12
2023-03-27T18:07:29.505Z,4.07
2023-03-27T18:12:34.106Z,3.99
2023-03-27T18:24:47.001Z,3.95
2023-03-27T18:29:48.583Z,3.90
2023-03-27T18:34:51.078Z,3.96
2023-03-27T18:39:52.709Z,3.94
2023-03-27T18:44:54.534Z,3.95
2023-03-27T18:49:57.509Z,3.86
2023-03-27T18:54:59.158Z,3.92
2023-03-27T19:00:01.466Z,3.89
2023-03-27T19:05:04.302Z,3.89
2023-03-27T19:10:06.546Z,3.85
2023-03-27T19:20:41.140Z,3.82
2023-03-27T19:26:19.700Z,3.84
2023-03-27T19:31:21.927Z,3.73
2023-03-27T19:36:27.198Z,3.71
2023-03-27T19:41:28.897Z,3.72
2023-03-27T19:46:30.785Z,3.69
2023-03-27T19:51:32.517Z,3.74
2023-03-27T19:56:35.003Z,3.68
2023-03-27T20:01:37.583Z,3.61
2023-03-27T20:06:39.899Z,3.61
2023-03-27T20:11:44.125Z,3.52
2023-03-27T20:16:46.676Z,3.46
2023-03-27T20:21:48.280Z,3.46
2023-03-27T20:26:54.026Z,3.43
2023-03-27T20:31:58.832Z,3.44
2023-03-27T20:37:05.768Z,3.46
2023-03-27T20:42:28.754Z,3.35
2023-03-27T20:47:39.132Z,3.27
2023-03-27T20:52:41.717Z,3.27
2023-03-27T20:57:43.359Z,3.23
2023-03-27T21:02:45.164Z,3.14
2023-03-27T21:07:52.627Z,3.08
2023-03-27T21:12:56.581Z,3.18
2023-03-27T21:17:58.664Z,3.20
2023-03-27T21:23:01.936Z,3.17
2023-03-27T21:28:04.920Z,3.19
2023-03-27T21:33:07.281Z,3.20
2023-03-27T21:38:09.021Z,3.14
2023-03-27T21:43:13.194Z,3.12
2023-03-27T21:48:15.356Z,3.01
2023-03-27T21:53:17.154Z,3.07
2023-03-27T21:58:18.776Z,3.03
2023-03-27T22:03:20.582Z,3.07
2023-03-27T22:08:22.304Z,3.06
2023-03-27T22:13:24.070Z,2.99
2023-03-27T22:18:25.899Z,2.96
2023-03-27T22:23:27.765Z,2.97
2023-03-27T22:28:29.624Z,2.93
2023-03-27T22:33:32.029Z,2.91
2023-03-27T22:38:33.757Z,2.89
2023-03-27T22:43:35.878Z,2.92
2023-03-27T22:48:37.525Z,2.89
2023-03-27T22:53:40.515Z,2.83
2023-03-27T22:58:42.162Z,2.82
2023-03-27T23:03:44.011Z,2.79
2023-03-27T23:08:47.295Z,2.79
2023-03-27T23:13:49.634Z,2.78
2023-03-27T23:18:51.268Z,2.73
2023-03-27T23:23:53.104Z,2.65
2023-03-27T23:29:02.344Z,2.64
2023-03-27T23:34:04.119Z,2.67
2023-03-27T23:39:05.742Z,2.58
2023-03-27T23:44:07.304Z,2.57
2023-03-27T23:49:08.878Z,2.48
2023-03-27T23:54:10.602Z,2.49
2023-03-27T23:59:12.318Z,2.49
